This is the latest recevied weather packets stored in our database for station/object OK1JIL-13. If no packets are shown the sender has not sent any weather packets the latest 10 day(s).
| Time | Temp. | Humidity | Pressure | Rain* | Wind** | Luminosity | Snow |
|---|---|---|---|---|---|---|---|
| 1777420990 | 5° C | 32% | 1023.2 hPa | - | - | - | - |
| 1777420390 | 5° C | 31% | 1023.2 hPa | - | - | - | - |
| 1777419190 | 4.44° C | 32% | 1023.1 hPa | - | - | - | - |
| 1777414990 | 3.89° C | 36% | 1022.9 hPa | - | - | - | - |
| 1777410790 | 3.33° C | 38% | 1022.8 hPa | - | - | - | - |
| 1777410190 | 3.89° C | 38% | 1022.9 hPa | - | - | - | - |
| 1777407788 | 4.44° C | 35% | 1022.8 hPa | - | - | - | - |
| 1777405389 | 4.44° C | 35% | 1022.7 hPa | - | - | - | - |
| 1777399389 | 6.11° C | 34% | 1021.8 hPa | - | - | - | - |
| 1777397589 | 6.11° C | 36% | 1021.6 hPa | - | - | - | - |
| 1777380788 | 12.22° C | 34% | 1022.2 hPa | - | - | - | - |
| 1777378988 | 11.11° C | 34% | 1022.2 hPa | - | - | - | - |
| 1777377788 | 15° C | 30% | 1022.1 hPa | - | - | - | - |
| 1777374791 | 13.89° C | 32% | 1022.3 hPa | - | - | - | - |
| 1777372388 | 13.89° C | 29% | 1022.2 hPa | - | - | - | - |
| 1777371788 | 13.89° C | 31% | 1022.3 hPa | - | - | - | - |
| 1777371188 | 13.89° C | 29% | 1022.3 hPa | - | - | - | - |
| 1777368788 | 12.78° C | 33% | 1022.2 hPa | - | - | - | - |
| 1777365186 | 11.67° C | 35% | 1022.1 hPa | - | - | - | - |
| 1777364587 | 13.33° C | 34% | 1022.1 hPa | - | - | - | - |
| 1777363986 | 12.22° C | 33% | 1022 hPa | - | - | - | - |
| 1777363386 | 13.33° C | 34% | 1022 hPa | - | - | - | - |
| 1777362786 | 12.78° C | 34% | 1021.9 hPa | - | - | - | - |
| 1777362189 | 12.78° C | 32% | 1021.9 hPa | - | - | - | - |
| 1777361586 | 12.78° C | 31% | 1021.8 hPa | - | - | - | - |
* Rain since midnight (hover to see other rain measurements)
** Current wind speed in m/s (hover to see current wind gust speed)